sensor_id;sensor_type;location;lat;lon;timestamp;P1;durP1;ratioP1;P2;durP2;ratioP2
65799;SDS011;52544;48.116;11.660;2023-02-26T00:01:34;2.72;;;1.70;;
65799;SDS011;52544;48.116;11.660;2023-02-26T00:04:02;3.33;;;1.52;;
65799;SDS011;52544;48.116;11.660;2023-02-26T00:06:30;3.00;;;1.70;;
65799;SDS011;52544;48.116;11.660;2023-02-26T00:08:58;3.70;;;1.63;;
65799;SDS011;52544;48.116;11.660;2023-02-26T00:11:24;3.17;;;1.80;;
65799;SDS011;52544;48.116;11.660;2023-02-26T00:13:50;5.78;;;1.77;;
65799;SDS011;52544;48.116;11.660;2023-02-26T00:16:29;2.60;;;1.40;;
65799;SDS011;52544;48.116;11.660;2023-02-26T00:18:57;2.53;;;1.58;;
65799;SDS011;52544;48.116;11.660;2023-02-26T00:21:24;2.67;;;1.80;;
65799;SDS011;52544;48.116;11.660;2023-02-26T00:23:51;3.08;;;1.90;;
65799;SDS011;52544;48.116;11.660;2023-02-26T00:26:17;3.78;;;1.95;;
65799;SDS011;52544;48.116;11.660;2023-02-26T00:28:43;2.17;;;1.55;;
65799;SDS011;52544;48.116;11.660;2023-02-26T00:31:09;2.50;;;1.83;;
65799;SDS011;52544;48.116;11.660;2023-02-26T00:33:35;2.97;;;2.25;;
65799;SDS011;52544;48.116;11.660;2023-02-26T00:38:46;2.80;;;1.63;;
65799;SDS011;52544;48.116;11.660;2023-02-26T00:41:26;2.40;;;1.80;;
65799;SDS011;52544;48.116;11.660;2023-02-26T00:43:53;3.05;;;2.20;;
65799;SDS011;52544;48.116;11.660;2023-02-26T00:46:32;2.97;;;1.95;;
65799;SDS011;52544;48.116;11.660;2023-02-26T00:52:00;4.40;;;1.90;;
65799;SDS011;52544;48.116;11.660;2023-02-26T00:54:29;2.63;;;1.83;;
65799;SDS011;52544;48.116;11.660;2023-02-26T00:56:56;4.82;;;2.22;;
65799;SDS011;52544;48.116;11.660;2023-02-26T00:59:23;3.13;;;2.03;;
65799;SDS011;52544;48.116;11.660;2023-02-26T01:01:49;3.28;;;2.30;;
65799;SDS011;52544;48.116;11.660;2023-02-26T01:04:16;4.10;;;2.20;;
65799;SDS011;52544;48.116;11.660;2023-02-26T01:06:49;6.97;;;2.20;;
65799;SDS011;52544;48.116;11.660;2023-02-26T01:11:48;3.30;;;2.30;;
65799;SDS011;52544;48.116;11.660;2023-02-26T01:14:14;4.03;;;2.28;;
65799;SDS011;52544;48.116;11.660;2023-02-26T01:17:15;2.88;;;2.05;;
65799;SDS011;52544;48.116;11.660;2023-02-26T01:19:38;3.50;;;2.45;;
65799;SDS011;52544;48.116;11.660;2023-02-26T01:22:21;3.47;;;2.03;;
65799;SDS011;52544;48.116;11.660;2023-02-26T01:24:59;3.58;;;2.03;;
65799;SDS011;52544;48.116;11.660;2023-02-26T01:27:31;3.83;;;2.17;;
65799;SDS011;52544;48.116;11.660;2023-02-26T01:29:56;4.55;;;2.63;;
65799;SDS011;52544;48.116;11.660;2023-02-26T01:32:28;2.53;;;1.85;;
65799;SDS011;52544;48.116;11.660;2023-02-26T01:40:35;2.78;;;1.90;;
65799;SDS011;52544;48.116;11.660;2023-02-26T01:43:43;1.85;;;1.42;;
65799;SDS011;52544;48.116;11.660;2023-02-26T01:49:26;2.50;;;1.65;;
65799;SDS011;52544;48.116;11.660;2023-02-26T01:51:54;2.10;;;1.52;;
65799;SDS011;52544;48.116;11.660;2023-02-26T01:54:24;3.20;;;1.77;;
65799;SDS011;52544;48.116;11.660;2023-02-26T01:57:10;2.45;;;1.70;;
65799;SDS011;52544;48.116;11.660;2023-02-26T01:59:40;2.30;;;1.75;;
65799;SDS011;52544;48.116;11.660;2023-02-26T02:02:09;2.45;;;1.80;;
65799;SDS011;52544;48.116;11.660;2023-02-26T02:04:37;2.40;;;1.52;;
65799;SDS011;52544;48.116;11.660;2023-02-26T02:07:04;2.88;;;2.08;;
65799;SDS011;52544;48.116;11.660;2023-02-26T02:09:30;2.92;;;1.98;;
65799;SDS011;52544;48.116;11.660;2023-02-26T02:22:45;6.18;;;1.70;;
65799;SDS011;52544;48.116;11.660;2023-02-26T02:25:30;5.35;;;2.05;;
65799;SDS011;52544;48.116;11.660;2023-02-26T02:28:29;2.42;;;1.63;;
65799;SDS011;52544;48.116;11.660;2023-02-26T02:31:10;3.00;;;1.83;;
65799;SDS011;52544;48.116;11.660;2023-02-26T02:36:35;2.95;;;1.80;;
65799;SDS011;52544;48.116;11.660;2023-02-26T02:39:07;4.55;;;1.65;;
65799;SDS011;52544;48.116;11.660;2023-02-26T02:41:36;3.13;;;1.63;;
65799;SDS011;52544;48.116;11.660;2023-02-26T02:44:07;3.83;;;1.27;;
65799;SDS011;52544;48.116;11.660;2023-02-26T02:46:36;1.58;;;1.10;;
65799;SDS011;52544;48.116;11.660;2023-02-26T02:49:06;2.78;;;1.40;;
65799;SDS011;52544;48.116;11.660;2023-02-26T02:51:51;3.05;;;1.20;;
65799;SDS011;52544;48.116;11.660;2023-02-26T02:56:52;3.35;;;1.30;;
65799;SDS011;52544;48.116;11.660;2023-02-26T02:59:24;1.95;;;1.35;;
65799;SDS011;52544;48.116;11.660;2023-02-26T03:02:38;1.65;;;1.10;;
65799;SDS011;52544;48.116;11.660;2023-02-26T03:04:53;1.85;;;1.30;;
65799;SDS011;52544;48.116;11.660;2023-02-26T03:07:18;1.83;;;1.20;;
65799;SDS011;52544;48.116;11.660;2023-02-26T03:09:44;2.92;;;1.50;;
65799;SDS011;52544;48.116;11.660;2023-02-26T03:12:10;3.58;;;1.33;;
65799;SDS011;52544;48.116;11.660;2023-02-26T03:14:35;10.00;;;1.50;;
65799;SDS011;52544;48.116;11.660;2023-02-26T03:17:06;2.55;;;1.50;;
65799;SDS011;52544;48.116;11.660;2023-02-26T03:19:48;3.05;;;1.40;;
65799;SDS011;52544;48.116;11.660;2023-02-26T03:22:41;2.40;;;1.55;;
65799;SDS011;52544;48.116;11.660;2023-02-26T03:25:34;3.50;;;1.10;;
65799;SDS011;52544;48.116;11.660;2023-02-26T03:31:06;3.45;;;1.45;;
65799;SDS011;52544;48.116;11.660;2023-02-26T03:33:40;2.88;;;1.52;;
65799;SDS011;52544;48.116;11.660;2023-02-26T03:36:19;3.65;;;1.52;;
65799;SDS011;52544;48.116;11.660;2023-02-26T03:38:55;1.77;;;1.30;;
65799;SDS011;52544;48.116;11.660;2023-02-26T03:41:35;1.85;;;1.17;;
65799;SDS011;52544;48.116;11.660;2023-02-26T03:44:07;2.03;;;1.30;;
65799;SDS011;52544;48.116;11.660;2023-02-26T03:46:39;1.48;;;1.10;;
65799;SDS011;52544;48.116;11.660;2023-02-26T03:49:10;5.55;;;1.40;;
65799;SDS011;52544;48.116;11.660;2023-02-26T03:51:39;3.15;;;1.38;;
65799;SDS011;52544;48.116;11.660;2023-02-26T03:54:07;2.42;;;1.40;;
65799;SDS011;52544;48.116;11.660;2023-02-26T03:56:40;2.65;;;1.33;;
65799;SDS011;52544;48.116;11.660;2023-02-26T03:59:08;4.18;;;1.80;;
65799;SDS011;52544;48.116;11.660;2023-02-26T04:01:38;2.45;;;1.52;;
65799;SDS011;52544;48.116;11.660;2023-02-26T04:04:14;3.92;;;1.95;;
65799;SDS011;52544;48.116;11.660;2023-02-26T04:06:43;2.78;;;1.25;;
65799;SDS011;52544;48.116;11.660;2023-02-26T04:09:09;1.58;;;1.40;;
65799;SDS011;52544;48.116;11.660;2023-02-26T04:11:35;2.17;;;1.33;;
65799;SDS011;52544;48.116;11.660;2023-02-26T04:14:02;2.03;;;1.25;;
65799;SDS011;52544;48.116;11.660;2023-02-26T04:16:28;2.72;;;1.35;;
65799;SDS011;52544;48.116;11.660;2023-02-26T04:18:53;3.45;;;1.58;;
65799;SDS011;52544;48.116;11.660;2023-02-26T04:21:19;4.85;;;1.50;;
65799;SDS011;52544;48.116;11.660;2023-02-26T04:23:46;2.42;;;1.42;;
65799;SDS011;52544;48.116;11.660;2023-02-26T04:26:12;3.28;;;1.60;;
65799;SDS011;52544;48.116;11.660;2023-02-26T04:28:38;7.72;;;2.30;;
65799;SDS011;52544;48.116;11.660;2023-02-26T04:31:04;3.88;;;2.33;;
65799;SDS011;52544;48.116;11.660;2023-02-26T04:33:30;3.40;;;1.90;;
65799;SDS011;52544;48.116;11.660;2023-02-26T04:35:57;4.82;;;1.85;;
65799;SDS011;52544;48.116;11.660;2023-02-26T04:38:23;6.32;;;1.55;;
65799;SDS011;52544;48.116;11.660;2023-02-26T04:40:49;3.67;;;1.70;;
65799;SDS011;52544;48.116;11.660;2023-02-26T04:43:14;3.50;;;1.15;;
65799;SDS011;52544;48.116;11.660;2023-02-26T04:45:40;2.10;;;1.30;;
65799;SDS011;52544;48.116;11.660;2023-02-26T04:48:05;4.00;;;1.40;;
65799;SDS011;52544;48.116;11.660;2023-02-26T04:50:31;1.65;;;1.08;;
65799;SDS011;52544;48.116;11.660;2023-02-26T04:52:56;1.67;;;1.20;;
65799;SDS011;52544;48.116;11.660;2023-02-26T04:55:22;2.40;;;1.35;;
65799;SDS011;52544;48.116;11.660;2023-02-26T04:57:47;2.78;;;1.40;;
65799;SDS011;52544;48.116;11.660;2023-02-26T05:00:13;3.08;;;1.60;;
65799;SDS011;52544;48.116;11.660;2023-02-26T05:02:39;1.73;;;1.38;;
65799;SDS011;52544;48.116;11.660;2023-02-26T05:05:04;2.53;;;1.42;;
65799;SDS011;52544;48.116;11.660;2023-02-26T05:07:31;6.53;;;1.48;;
65799;SDS011;52544;48.116;11.660;2023-02-26T05:09:56;2.50;;;1.52;;
65799;SDS011;52544;48.116;11.660;2023-02-26T05:12:22;5.85;;;1.33;;
65799;SDS011;52544;48.116;11.660;2023-02-26T05:14:47;2.78;;;1.92;;
65799;SDS011;52544;48.116;11.660;2023-02-26T05:17:12;2.30;;;1.30;;
65799;SDS011;52544;48.116;11.660;2023-02-26T05:19:38;3.25;;;1.90;;
65799;SDS011;52544;48.116;11.660;2023-02-26T05:22:03;3.22;;;1.50;;
65799;SDS011;52544;48.116;11.660;2023-02-26T05:24:29;5.70;;;1.67;;
65799;SDS011;52544;48.116;11.660;2023-02-26T05:26:54;2.15;;;1.52;;
65799;SDS011;52544;48.116;11.660;2023-02-26T05:29:20;2.17;;;1.40;;
65799;SDS011;52544;48.116;11.660;2023-02-26T05:31:45;2.65;;;1.40;;
65799;SDS011;52544;48.116;11.660;2023-02-26T05:34:10;2.95;;;1.80;;
65799;SDS011;52544;48.116;11.660;2023-02-26T05:36:36;1.63;;;1.38;;
65799;SDS011;52544;48.116;11.660;2023-02-26T05:39:01;2.80;;;1.77;;
65799;SDS011;52544;48.116;11.660;2023-02-26T05:41:27;6.72;;;1.52;;
65799;SDS011;52544;48.116;11.660;2023-02-26T05:43:52;5.18;;;1.50;;
65799;SDS011;52544;48.116;11.660;2023-02-26T05:46:18;3.88;;;1.63;;
65799;SDS011;52544;48.116;11.660;2023-02-26T05:48:43;4.45;;;1.48;;
65799;SDS011;52544;48.116;11.660;2023-02-26T05:51:09;2.92;;;1.67;;
65799;SDS011;52544;48.116;11.660;2023-02-26T05:53:34;7.53;;;1.90;;
65799;SDS011;52544;48.116;11.660;2023-02-26T05:56:00;2.53;;;1.55;;
65799;SDS011;52544;48.116;11.660;2023-02-26T05:58:25;4.22;;;1.60;;
65799;SDS011;52544;48.116;11.660;2023-02-26T06:00:51;3.80;;;1.83;;
65799;SDS011;52544;48.116;11.660;2023-02-26T06:03:17;3.78;;;1.70;;
65799;SDS011;52544;48.116;11.660;2023-02-26T06:05:42;3.75;;;1.75;;
65799;SDS011;52544;48.116;11.660;2023-02-26T06:08:07;4.90;;;1.80;;
65799;SDS011;52544;48.116;11.660;2023-02-26T06:10:33;6.88;;;2.03;;
65799;SDS011;52544;48.116;11.660;2023-02-26T06:12:58;1.67;;;1.23;;
65799;SDS011;52544;48.116;11.660;2023-02-26T06:15:24;4.45;;;1.48;;
65799;SDS011;52544;48.116;11.660;2023-02-26T06:17:49;2.42;;;1.40;;
65799;SDS011;52544;48.116;11.660;2023-02-26T06:20:15;3.30;;;1.75;;
65799;SDS011;52544;48.116;11.660;2023-02-26T06:22:40;2.10;;;1.42;;
65799;SDS011;52544;48.116;11.660;2023-02-26T06:25:06;4.32;;;1.77;;
65799;SDS011;52544;48.116;11.660;2023-02-26T06:27:32;8.02;;;1.80;;
65799;SDS011;52544;48.116;11.660;2023-02-26T06:29:57;5.85;;;1.73;;
65799;SDS011;52544;48.116;11.660;2023-02-26T06:32:23;5.47;;;2.80;;
65799;SDS011;52544;48.116;11.660;2023-02-26T06:34:48;2.10;;;1.75;;
65799;SDS011;52544;48.116;11.660;2023-02-26T06:37:14;13.23;;;4.32;;
65799;SDS011;52544;48.116;11.660;2023-02-26T06:39:40;4.70;;;2.08;;
65799;SDS011;52544;48.116;11.660;2023-02-26T06:42:05;4.00;;;1.50;;
65799;SDS011;52544;48.116;11.660;2023-02-26T06:44:31;4.32;;;1.92;;
65799;SDS011;52544;48.116;11.660;2023-02-26T06:46:56;3.63;;;1.65;;
65799;SDS011;52544;48.116;11.660;2023-02-26T06:49:22;5.63;;;2.00;;
65799;SDS011;52544;48.116;11.660;2023-02-26T06:51:47;4.70;;;2.13;;
65799;SDS011;52544;48.116;11.660;2023-02-26T06:54:12;4.97;;;1.90;;
65799;SDS011;52544;48.116;11.660;2023-02-26T06:56:38;2.17;;;1.20;;
65799;SDS011;52544;48.116;11.660;2023-02-26T06:59:03;1.98;;;1.35;;
65799;SDS011;52544;48.116;11.660;2023-02-26T07:01:29;6.15;;;1.73;;
65799;SDS011;52544;48.116;11.660;2023-02-26T07:03:56;3.25;;;1.90;;
65799;SDS011;52544;48.116;11.660;2023-02-26T07:06:22;4.68;;;1.40;;
65799;SDS011;52544;48.116;11.660;2023-02-26T07:08:47;2.85;;;1.60;;
65799;SDS011;52544;48.116;11.660;2023-02-26T07:11:13;2.22;;;1.33;;
65799;SDS011;52544;48.116;11.660;2023-02-26T07:13:38;7.65;;;1.80;;
65799;SDS011;52544;48.116;11.660;2023-02-26T07:16:04;5.25;;;1.80;;
65799;SDS011;52544;48.116;11.660;2023-02-26T07:18:34;2.28;;;1.70;;
65799;SDS011;52544;48.116;11.660;2023-02-26T07:21:00;3.20;;;1.40;;
65799;SDS011;52544;48.116;11.660;2023-02-26T07:23:26;5.25;;;1.65;;
65799;SDS011;52544;48.116;11.660;2023-02-26T07:25:51;3.47;;;2.05;;
65799;SDS011;52544;48.116;11.660;2023-02-26T07:28:16;3.13;;;1.52;;
65799;SDS011;52544;48.116;11.660;2023-02-26T07:30:42;5.40;;;1.90;;
65799;SDS011;52544;48.116;11.660;2023-02-26T07:33:08;4.75;;;2.20;;
65799;SDS011;52544;48.116;11.660;2023-02-26T07:35:34;8.15;;;1.65;;
65799;SDS011;52544;48.116;11.660;2023-02-26T07:37:59;3.17;;;1.70;;
65799;SDS011;52544;48.116;11.660;2023-02-26T07:40:25;7.53;;;2.20;;
65799;SDS011;52544;48.116;11.660;2023-02-26T07:42:50;4.70;;;1.52;;
65799;SDS011;52544;48.116;11.660;2023-02-26T07:45:16;5.45;;;2.22;;
65799;SDS011;52544;48.116;11.660;2023-02-26T07:47:46;5.05;;;1.90;;
65799;SDS011;52544;48.116;11.660;2023-02-26T07:50:12;3.08;;;1.77;;
65799;SDS011;52544;48.116;11.660;2023-02-26T07:52:37;7.40;;;2.10;;
65799;SDS011;52544;48.116;11.660;2023-02-26T07:55:03;3.20;;;1.58;;
65799;SDS011;52544;48.116;11.660;2023-02-26T07:57:28;2.80;;;1.67;;
65799;SDS011;52544;48.116;11.660;2023-02-26T07:59:54;2.75;;;1.58;;
65799;SDS011;52544;48.116;11.660;2023-02-26T08:02:19;5.90;;;1.80;;
65799;SDS011;52544;48.116;11.660;2023-02-26T08:04:44;8.70;;;2.33;;
65799;SDS011;52544;48.116;11.660;2023-02-26T08:07:10;5.47;;;1.98;;
65799;SDS011;52544;48.116;11.660;2023-02-26T08:09:35;2.35;;;1.85;;
65799;SDS011;52544;48.116;11.660;2023-02-26T08:12:01;3.10;;;1.80;;
65799;SDS011;52544;48.116;11.660;2023-02-26T08:14:27;3.78;;;1.95;;
65799;SDS011;52544;48.116;11.660;2023-02-26T08:16:52;4.07;;;2.00;;
65799;SDS011;52544;48.116;11.660;2023-02-26T08:19:18;5.60;;;2.35;;
65799;SDS011;52544;48.116;11.660;2023-02-26T08:21:43;3.55;;;1.65;;
65799;SDS011;52544;48.116;11.660;2023-02-26T08:24:10;3.65;;;1.83;;
65799;SDS011;52544;48.116;11.660;2023-02-26T08:26:36;3.38;;;1.77;;
65799;SDS011;52544;48.116;11.660;2023-02-26T08:29:02;2.97;;;1.70;;
65799;SDS011;52544;48.116;11.660;2023-02-26T08:31:28;2.92;;;1.92;;
65799;SDS011;52544;48.116;11.660;2023-02-26T08:33:53;3.28;;;1.77;;
65799;SDS011;52544;48.116;11.660;2023-02-26T08:36:19;3.85;;;2.22;;
65799;SDS011;52544;48.116;11.660;2023-02-26T08:38:46;3.72;;;1.88;;
65799;SDS011;52544;48.116;11.660;2023-02-26T08:41:11;3.88;;;2.10;;
65799;SDS011;52544;48.116;11.660;2023-02-26T08:43:37;3.65;;;2.17;;
65799;SDS011;52544;48.116;11.660;2023-02-26T08:46:02;3.70;;;1.90;;
65799;SDS011;52544;48.116;11.660;2023-02-26T08:48:28;3.97;;;1.90;;
65799;SDS011;52544;48.116;11.660;2023-02-26T08:50:53;3.35;;;1.90;;
65799;SDS011;52544;48.116;11.660;2023-02-26T08:53:18;3.75;;;2.15;;
65799;SDS011;52544;48.116;11.660;2023-02-26T08:55:48;4.05;;;2.25;;
65799;SDS011;52544;48.116;11.660;2023-02-26T08:58:14;2.40;;;1.63;;
65799;SDS011;52544;48.116;11.660;2023-02-26T09:00:39;4.72;;;2.05;;
65799;SDS011;52544;48.116;11.660;2023-02-26T09:03:04;3.35;;;1.95;;
65799;SDS011;52544;48.116;11.660;2023-02-26T09:05:30;4.95;;;2.13;;
65799;SDS011;52544;48.116;11.660;2023-02-26T09:07:55;5.28;;;2.85;;
65799;SDS011;52544;48.116;11.660;2023-02-26T09:10:21;3.40;;;2.40;;
65799;SDS011;52544;48.116;11.660;2023-02-26T09:12:46;4.22;;;2.60;;
65799;SDS011;52544;48.116;11.660;2023-02-26T09:15:12;3.97;;;2.33;;
65799;SDS011;52544;48.116;11.660;2023-02-26T09:17:39;4.82;;;2.55;;
65799;SDS011;52544;48.116;11.660;2023-02-26T09:20:05;4.93;;;2.65;;
65799;SDS011;52544;48.116;11.660;2023-02-26T09:22:31;3.92;;;2.50;;
65799;SDS011;52544;48.116;11.660;2023-02-26T09:24:57;4.85;;;2.72;;
65799;SDS011;52544;48.116;11.660;2023-02-26T09:27:22;5.80;;;2.72;;
65799;SDS011;52544;48.116;11.660;2023-02-26T09:29:47;5.22;;;2.70;;
65799;SDS011;52544;48.116;11.660;2023-02-26T09:32:14;5.85;;;2.80;;
65799;SDS011;52544;48.116;11.660;2023-02-26T09:34:39;7.55;;;3.13;;
65799;SDS011;52544;48.116;11.660;2023-02-26T09:37:05;20.05;;;2.90;;
65799;SDS011;52544;48.116;11.660;2023-02-26T09:39:33;6.28;;;2.70;;
65799;SDS011;52544;48.116;11.660;2023-02-26T09:41:59;3.55;;;2.47;;
65799;SDS011;52544;48.116;11.660;2023-02-26T09:44:49;4.20;;;2.30;;
65799;SDS011;52544;48.116;11.660;2023-02-26T09:47:28;5.32;;;2.83;;
65799;SDS011;52544;48.116;11.660;2023-02-26T09:50:17;7.63;;;2.63;;
65799;SDS011;52544;48.116;11.660;2023-02-26T09:55:17;3.72;;;2.65;;
65799;SDS011;52544;48.116;11.660;2023-02-26T09:57:51;5.15;;;2.65;;
65799;SDS011;52544;48.116;11.660;2023-02-26T10:00:36;4.57;;;2.80;;
65799;SDS011;52544;48.116;11.660;2023-02-26T10:08:20;9.27;;;2.50;;
65799;SDS011;52544;48.116;11.660;2023-02-26T10:11:02;4.15;;;2.65;;
65799;SDS011;52544;48.116;11.660;2023-02-26T10:13:42;5.57;;;2.97;;
65799;SDS011;52544;48.116;11.660;2023-02-26T10:16:14;5.10;;;2.92;;
65799;SDS011;52544;48.116;11.660;2023-02-26T10:18:45;4.43;;;2.70;;
65799;SDS011;52544;48.116;11.660;2023-02-26T10:24:21;7.00;;;2.85;;
65799;SDS011;52544;48.116;11.660;2023-02-26T10:26:55;4.63;;;3.10;;
65799;SDS011;52544;48.116;11.660;2023-02-26T10:29:40;8.15;;;3.35;;
65799;SDS011;52544;48.116;11.660;2023-02-26T10:35:04;5.35;;;2.80;;
65799;SDS011;52544;48.116;11.660;2023-02-26T10:43:22;4.70;;;2.90;;
65799;SDS011;52544;48.116;11.660;2023-02-26T10:46:07;4.80;;;2.80;;
65799;SDS011;52544;48.116;11.660;2023-02-26T10:48:41;4.40;;;2.70;;
65799;SDS011;52544;48.116;11.660;2023-02-26T10:51:34;6.32;;;3.22;;
65799;SDS011;52544;48.116;11.660;2023-02-26T10:54:03;7.13;;;3.05;;
65799;SDS011;52544;48.116;11.660;2023-02-26T10:56:39;3.63;;;2.50;;
65799;SDS011;52544;48.116;11.660;2023-02-26T10:59:04;4.53;;;3.13;;
65799;SDS011;52544;48.116;11.660;2023-02-26T11:01:30;7.03;;;3.03;;
65799;SDS011;52544;48.116;11.660;2023-02-26T11:03:57;5.05;;;2.85;;
65799;SDS011;52544;48.116;11.660;2023-02-26T11:06:29;3.90;;;2.78;;
65799;SDS011;52544;48.116;11.660;2023-02-26T11:09:02;6.95;;;3.17;;
65799;SDS011;52544;48.116;11.660;2023-02-26T11:14:11;5.55;;;3.00;;
65799;SDS011;52544;48.116;11.660;2023-02-26T11:16:57;5.93;;;3.35;;
65799;SDS011;52544;48.116;11.660;2023-02-26T11:19:26;5.65;;;3.35;;
65799;SDS011;52544;48.116;11.660;2023-02-26T11:21:55;5.35;;;3.33;;
65799;SDS011;52544;48.116;11.660;2023-02-26T11:24:26;5.57;;;3.35;;
65799;SDS011;52544;48.116;11.660;2023-02-26T11:26:56;5.00;;;3.20;;
65799;SDS011;52544;48.116;11.660;2023-02-26T11:29:24;3.78;;;2.83;;
65799;SDS011;52544;48.116;11.660;2023-02-26T11:31:50;3.53;;;2.63;;
65799;SDS011;52544;48.116;11.660;2023-02-26T11:34:20;5.40;;;3.22;;
65799;SDS011;52544;48.116;11.660;2023-02-26T11:36:48;6.10;;;3.35;;
65799;SDS011;52544;48.116;11.660;2023-02-26T11:39:15;5.68;;;3.42;;
65799;SDS011;52544;48.116;11.660;2023-02-26T11:41:43;7.95;;;4.13;;
65799;SDS011;52544;48.116;11.660;2023-02-26T11:44:11;5.93;;;3.65;;
65799;SDS011;52544;48.116;11.660;2023-02-26T11:46:41;8.13;;;4.43;;
65799;SDS011;52544;48.116;11.660;2023-02-26T11:49:11;5.40;;;3.50;;
65799;SDS011;52544;48.116;11.660;2023-02-26T11:51:38;4.13;;;3.00;;
65799;SDS011;52544;48.116;11.660;2023-02-26T11:54:19;6.70;;;3.28;;
65799;SDS011;52544;48.116;11.660;2023-02-26T11:56:51;3.95;;;2.40;;
65799;SDS011;52544;48.116;11.660;2023-02-26T11:59:25;4.45;;;2.40;;
65799;SDS011;52544;48.116;11.660;2023-02-26T12:01:54;5.20;;;2.80;;
65799;SDS011;52544;48.116;11.660;2023-02-26T12:04:21;4.95;;;3.15;;
65799;SDS011;52544;48.116;11.660;2023-02-26T12:06:49;5.05;;;3.00;;
65799;SDS011;52544;48.116;11.660;2023-02-26T12:09:16;4.25;;;2.78;;
65799;SDS011;52544;48.116;11.660;2023-02-26T12:17:17;2.67;;;1.77;;
65799;SDS011;52544;48.116;11.660;2023-02-26T12:22:57;4.03;;;2.17;;
65799;SDS011;52544;48.116;11.660;2023-02-26T12:25:39;2.45;;;1.70;;
65799;SDS011;52544;48.116;11.660;2023-02-26T12:40:04;4.13;;;2.67;;
65799;SDS011;52544;48.116;11.660;2023-02-26T12:42:48;4.10;;;2.70;;
65799;SDS011;52544;48.116;11.660;2023-02-26T12:59:28;2.28;;;2.00;;
65799;SDS011;52544;48.116;11.660;2023-02-26T13:10:25;2.85;;;2.05;;
65799;SDS011;52544;48.116;11.660;2023-02-26T13:15:52;3.58;;;2.05;;
65799;SDS011;52544;48.116;11.660;2023-02-26T13:21:06;3.90;;;1.80;;
65799;SDS011;52544;48.116;11.660;2023-02-26T13:23:51;2.95;;;1.95;;
65799;SDS011;52544;48.116;11.660;2023-02-26T13:26:20;2.22;;;1.80;;
65799;SDS011;52544;48.116;11.660;2023-02-26T13:28:57;2.33;;;1.80;;
65799;SDS011;52544;48.116;11.660;2023-02-26T13:31:35;3.13;;;1.80;;
65799;SDS011;52544;48.116;11.660;2023-02-26T13:39:55;3.20;;;2.00;;
65799;SDS011;52544;48.116;11.660;2023-02-26T13:42:37;2.17;;;1.45;;
65799;SDS011;52544;48.116;11.660;2023-02-26T13:51:34;3.13;;;2.15;;
65799;SDS011;52544;48.116;11.660;2023-02-26T13:59:23;3.58;;;2.10;;
65799;SDS011;52544;48.116;11.660;2023-02-26T14:04:50;4.60;;;2.63;;
65799;SDS011;52544;48.116;11.660;2023-02-26T14:10:22;1.13;;;1.02;;
65799;SDS011;52544;48.116;11.660;2023-02-26T14:13:01;1.30;;;1.17;;
65799;SDS011;52544;48.116;11.660;2023-02-26T14:15:39;2.10;;;1.35;;
65799;SDS011;52544;48.116;11.660;2023-02-26T14:18:26;2.38;;;1.15;;
65799;SDS011;52544;48.116;11.660;2023-02-26T14:20:52;1.63;;;1.20;;
65799;SDS011;52544;48.116;11.660;2023-02-26T14:23:37;2.08;;;1.25;;
65799;SDS011;52544;48.116;11.660;2023-02-26T14:26:05;1.73;;;1.20;;
65799;SDS011;52544;48.116;11.660;2023-02-26T14:28:56;2.30;;;1.63;;
65799;SDS011;52544;48.116;11.660;2023-02-26T14:31:46;3.22;;;1.70;;
65799;SDS011;52544;48.116;11.660;2023-02-26T14:34:24;3.45;;;1.50;;
65799;SDS011;52544;48.116;11.660;2023-02-26T14:36:55;5.07;;;1.98;;
65799;SDS011;52544;48.116;11.660;2023-02-26T14:39:26;2.78;;;1.80;;
65799;SDS011;52544;48.116;11.660;2023-02-26T14:42:09;3.45;;;2.15;;
65799;SDS011;52544;48.116;11.660;2023-02-26T14:44:42;3.47;;;1.98;;
65799;SDS011;52544;48.116;11.660;2023-02-26T14:47:10;3.90;;;2.20;;
65799;SDS011;52544;48.116;11.660;2023-02-26T14:49:44;2.83;;;1.58;;
65799;SDS011;52544;48.116;11.660;2023-02-26T14:52:31;1.70;;;1.40;;
65799;SDS011;52544;48.116;11.660;2023-02-26T14:55:02;2.25;;;1.55;;
65799;SDS011;52544;48.116;11.660;2023-02-26T15:09:17;1.88;;;1.52;;
65799;SDS011;52544;48.116;11.660;2023-02-26T15:14:58;3.53;;;2.13;;
65799;SDS011;52544;48.116;11.660;2023-02-26T15:17:39;2.72;;;1.83;;
65799;SDS011;52544;48.116;11.660;2023-02-26T15:26:04;3.05;;;2.00;;
65799;SDS011;52544;48.116;11.660;2023-02-26T15:28:37;4.32;;;2.10;;
65799;SDS011;52544;48.116;11.660;2023-02-26T15:31:05;3.80;;;2.03;;
65799;SDS011;52544;48.116;11.660;2023-02-26T15:33:33;3.92;;;2.08;;
65799;SDS011;52544;48.116;11.660;2023-02-26T15:35:59;4.80;;;2.03;;
65799;SDS011;52544;48.116;11.660;2023-02-26T15:38:29;4.35;;;2.20;;
65799;SDS011;52544;48.116;11.660;2023-02-26T15:41:04;2.95;;;1.90;;
65799;SDS011;52544;48.116;11.660;2023-02-26T15:43:30;5.43;;;2.05;;
65799;SDS011;52544;48.116;11.660;2023-02-26T15:45:56;10.20;;;2.15;;
65799;SDS011;52544;48.116;11.660;2023-02-26T15:48:41;3.63;;;2.35;;
65799;SDS011;52544;48.116;11.660;2023-02-26T15:51:09;3.90;;;2.10;;
65799;SDS011;52544;48.116;11.660;2023-02-26T15:53:49;5.60;;;2.20;;
65799;SDS011;52544;48.116;11.660;2023-02-26T15:56:20;4.05;;;2.38;;
65799;SDS011;52544;48.116;11.660;2023-02-26T15:58:55;5.40;;;2.50;;
65799;SDS011;52544;48.116;11.660;2023-02-26T16:01:25;3.78;;;2.10;;
65799;SDS011;52544;48.116;11.660;2023-02-26T16:03:55;6.68;;;1.98;;
65799;SDS011;52544;48.116;11.660;2023-02-26T16:09:27;4.70;;;2.67;;
65799;SDS011;52544;48.116;11.660;2023-02-26T16:11:56;4.47;;;2.53;;
65799;SDS011;52544;48.116;11.660;2023-02-26T16:14:26;6.45;;;3.60;;
65799;SDS011;52544;48.116;11.660;2023-02-26T16:16:55;5.75;;;2.67;;
65799;SDS011;52544;48.116;11.660;2023-02-26T16:19:56;5.13;;;3.03;;
65799;SDS011;52544;48.116;11.660;2023-02-26T16:24:52;7.13;;;3.13;;
65799;SDS011;52544;48.116;11.660;2023-02-26T16:27:27;8.63;;;3.95;;
65799;SDS011;52544;48.116;11.660;2023-02-26T16:29:55;5.63;;;2.80;;
65799;SDS011;52544;48.116;11.660;2023-02-26T16:32:24;4.47;;;2.33;;
65799;SDS011;52544;48.116;11.660;2023-02-26T16:34:53;2.60;;;1.90;;
65799;SDS011;52544;48.116;11.660;2023-02-26T16:39:57;3.55;;;2.17;;
65799;SDS011;52544;48.116;11.660;2023-02-26T16:45:21;2.92;;;1.35;;
65799;SDS011;52544;48.116;11.660;2023-02-26T16:47:48;2.75;;;1.80;;
65799;SDS011;52544;48.116;11.660;2023-02-26T16:50:18;7.43;;;2.30;;
65799;SDS011;52544;48.116;11.660;2023-02-26T16:52:52;4.78;;;1.88;;
65799;SDS011;52544;48.116;11.660;2023-02-26T16:55:31;3.33;;;1.48;;
65799;SDS011;52544;48.116;11.660;2023-02-26T16:57:59;5.00;;;1.90;;
65799;SDS011;52544;48.116;11.660;2023-02-26T17:00:30;2.00;;;1.48;;
65799;SDS011;52544;48.116;11.660;2023-02-26T17:03:03;3.03;;;1.90;;
65799;SDS011;52544;48.116;11.660;2023-02-26T17:05:36;3.00;;;1.80;;
65799;SDS011;52544;48.116;11.660;2023-02-26T17:08:07;3.88;;;1.80;;
65799;SDS011;52544;48.116;11.660;2023-02-26T17:11:01;3.72;;;1.88;;
65799;SDS011;52544;48.116;11.660;2023-02-26T17:13:28;5.22;;;3.40;;
65799;SDS011;52544;48.116;11.660;2023-02-26T17:16:00;11.38;;;5.20;;
65799;SDS011;52544;48.116;11.660;2023-02-26T17:18:27;11.52;;;4.28;;
65799;SDS011;52544;48.116;11.660;2023-02-26T17:20:53;8.77;;;4.78;;
65799;SDS011;52544;48.116;11.660;2023-02-26T17:23:19;10.23;;;5.07;;
65799;SDS011;52544;48.116;11.660;2023-02-26T17:25:47;6.10;;;3.25;;
65799;SDS011;52544;48.116;11.660;2023-02-26T17:28:22;4.82;;;3.00;;
65799;SDS011;52544;48.116;11.660;2023-02-26T17:30:50;4.78;;;2.70;;
65799;SDS011;52544;48.116;11.660;2023-02-26T17:33:16;4.40;;;2.80;;